createdAt,value
2022-08-31T00:02:41.767Z,77.50
2022-08-31T00:05:10.736Z,77.30
2022-08-31T00:07:37.437Z,77.16
2022-08-31T00:10:14.707Z,76.85
2022-08-31T00:12:43.319Z,78.47
2022-08-31T00:15:13.387Z,80.13
2022-08-31T00:17:41.158Z,79.66
2022-08-31T00:20:09.734Z,79.33
2022-08-31T00:22:57.118Z,80.03
2022-08-31T00:25:24.447Z,80.59
2022-08-31T00:27:51.037Z,80.12
2022-08-31T00:30:18.326Z,79.81
2022-08-31T00:32:44.794Z,81.37
2022-08-31T00:35:11.316Z,82.17
2022-08-31T00:37:37.896Z,82.94
2022-08-31T00:40:05.037Z,83.19
2022-08-31T00:42:31.558Z,82.64
2022-08-31T00:44:58.106Z,82.10
2022-08-31T00:47:24.601Z,82.82
2022-08-31T00:49:52.509Z,82.98
2022-08-31T00:52:37.456Z,84.47
2022-08-31T00:55:12.148Z,84.79
2022-08-31T00:57:41.570Z,84.45
2022-08-31T01:00:13.260Z,83.89
2022-08-31T01:02:40.661Z,85.20
2022-08-31T01:05:08.496Z,84.78
2022-08-31T01:07:35.959Z,85.65
2022-08-31T01:10:02.772Z,85.67
2022-08-31T01:12:29.894Z,86.27
2022-08-31T01:14:57.242Z,85.90
2022-08-31T01:17:23.777Z,85.96
2022-08-31T01:20:00.044Z,85.89
2022-08-31T01:22:48.060Z,86.95
2022-08-31T01:25:15.258Z,87.67
2022-08-31T01:27:42.042Z,86.43
2022-08-31T01:30:11.625Z,87.26
2022-08-31T01:32:39.799Z,87.22
2022-08-31T01:35:07.393Z,87.16
2022-08-31T01:37:38.476Z,87.31
2022-08-31T01:40:06.121Z,87.93
2022-08-31T01:42:34.346Z,87.02
2022-08-31T01:45:01.706Z,87.80
2022-08-31T01:47:28.317Z,87.18
2022-08-31T01:49:57.463Z,88.63
2022-08-31T01:52:27.602Z,88.72
2022-08-31T01:54:55.244Z,88.37
2022-08-31T01:57:30.869Z,89.47
2022-08-31T02:00:03.076Z,89.35
2022-08-31T02:02:29.612Z,89.11
2022-08-31T02:04:56.114Z,89.69
2022-08-31T02:07:22.622Z,89.43
2022-08-31T02:09:49.168Z,89.24
2022-08-31T02:12:17.518Z,89.77
2022-08-31T02:14:44.002Z,90.89
2022-08-31T02:17:10.616Z,90.22
2022-08-31T02:19:37.173Z,90.92
2022-08-31T02:22:03.874Z,90.81
2022-08-31T02:24:31.283Z,90.82
2022-08-31T02:26:57.916Z,90.59
2022-08-31T02:29:24.406Z,90.69
2022-08-31T02:31:51.884Z,90.94
2022-08-31T02:34:19.504Z,90.59
2022-08-31T02:36:46.221Z,89.76
2022-08-31T02:39:14.477Z,89.86
2022-08-31T02:41:41.760Z,89.89
2022-08-31T02:44:08.337Z,89.31
2022-08-31T02:46:35.347Z,89.76
2022-08-31T02:49:02.662Z,89.17
2022-08-31T02:51:29.562Z,88.96
2022-08-31T02:53:56.106Z,88.97
2022-08-31T02:56:23.691Z,88.34
2022-08-31T02:58:54.707Z,88.06
2022-08-31T03:01:23.453Z,87.81
2022-08-31T03:03:50.217Z,87.50
2022-08-31T03:06:18.868Z,87.30
2022-08-31T03:08:46.195Z,87.41
2022-08-31T03:11:13.236Z,87.35
2022-08-31T03:13:41.444Z,87.24
2022-08-31T03:16:08.072Z,87.04
2022-08-31T03:18:34.674Z,87.08
2022-08-31T03:21:02.412Z,87.12
2022-08-31T03:23:29.180Z,86.70
2022-08-31T03:25:55.842Z,86.48
2022-08-31T03:28:22.512Z,86.49
2022-08-31T03:30:49.085Z,86.27
2022-08-31T03:33:16.153Z,86.89
2022-08-31T03:35:44.104Z,86.48
2022-08-31T03:38:12.822Z,86.42
2022-08-31T03:40:41.227Z,85.88
2022-08-31T03:43:11.473Z,85.87
2022-08-31T03:45:40.471Z,85.64
2022-08-31T03:48:11.996Z,85.51
2022-08-31T03:50:40.373Z,85.72
2022-08-31T03:53:08.132Z,84.98
2022-08-31T03:55:38.305Z,84.87
2022-08-31T03:58:05.979Z,84.52
2022-08-31T04:00:33.511Z,84.22
2022-08-31T04:03:00.552Z,84.29
2022-08-31T04:05:28.522Z,84.46
2022-08-31T04:07:55.866Z,84.27
2022-08-31T04:10:23.079Z,84.33
2022-08-31T04:12:49.988Z,84.26
2022-08-31T04:15:17.884Z,83.82
2022-08-31T04:17:45.651Z,83.77
2022-08-31T04:20:12.747Z,83.90
2022-08-31T04:22:39.357Z,83.67
2022-08-31T04:25:06.308Z,83.93
2022-08-31T04:27:32.846Z,84.21
2022-08-31T04:29:59.409Z,84.32
2022-08-31T04:32:25.900Z,84.02
2022-08-31T04:34:56.305Z,84.19
2022-08-31T04:37:23.326Z,83.77
2022-08-31T04:39:50.761Z,83.84
2022-08-31T04:42:17.729Z,83.88
2022-08-31T04:44:44.223Z,83.93
2022-08-31T04:47:10.693Z,84.11
2022-08-31T04:49:37.221Z,83.90
2022-08-31T04:52:03.864Z,83.89
2022-08-31T04:54:30.343Z,84.29
2022-08-31T04:56:59.057Z,84.30
2022-08-31T04:59:27.336Z,83.95
2022-08-31T05:01:55.469Z,84.35
2022-08-31T05:04:25.879Z,84.31
2022-08-31T05:06:52.457Z,84.26
2022-08-31T05:09:22.578Z,84.32
2022-08-31T05:11:51.342Z,84.46
2022-08-31T05:14:18.334Z,84.51
2022-08-31T05:16:45.895Z,84.21
2022-08-31T05:19:12.946Z,84.14
2022-08-31T05:21:41.909Z,84.02
2022-08-31T05:24:18.151Z,84.16
2022-08-31T05:26:50.686Z,84.08
2022-08-31T05:29:20.200Z,84.12
2022-08-31T05:31:52.054Z,83.95
2022-08-31T05:34:20.872Z,84.62
2022-08-31T05:36:51.993Z,84.37
2022-08-31T05:39:18.534Z,84.11
2022-08-31T05:41:46.772Z,84.22
2022-08-31T05:44:14.217Z,83.99
2022-08-31T05:46:41.728Z,83.98
2022-08-31T05:49:08.956Z,83.32
2022-08-31T05:51:38.351Z,83.44
2022-08-31T05:54:05.300Z,83.45
2022-08-31T05:56:31.895Z,83.20
2022-08-31T05:58:58.494Z,83.00
2022-08-31T06:01:30.353Z,82.86
2022-08-31T06:03:58.169Z,82.73
2022-08-31T06:06:24.866Z,82.87
2022-08-31T06:08:51.917Z,82.30
2022-08-31T06:11:20.831Z,82.64
2022-08-31T06:13:50.379Z,82.77
2022-08-31T06:16:17.852Z,82.60
2022-08-31T06:18:49.830Z,82.39
2022-08-31T06:21:32.174Z,82.87
2022-08-31T06:24:00.146Z,82.53
2022-08-31T06:26:29.006Z,83.01
2022-08-31T06:28:59.008Z,83.19
2022-08-31T06:31:29.553Z,83.17
2022-08-31T06:33:57.340Z,82.55
2022-08-31T06:36:26.511Z,82.79
2022-08-31T06:38:56.079Z,82.09
2022-08-31T06:41:27.194Z,82.33
2022-08-31T06:43:53.948Z,82.28
2022-08-31T06:46:22.883Z,81.63
2022-08-31T06:48:50.738Z,81.34
2022-08-31T06:51:17.836Z,81.24
2022-08-31T06:53:45.001Z,81.10
2022-08-31T06:56:20.999Z,80.89
2022-08-31T06:58:54.081Z,80.77
2022-08-31T07:01:34.759Z,80.63
2022-08-31T07:04:07.506Z,80.29
2022-08-31T07:06:40.870Z,80.31
2022-08-31T07:09:09.907Z,80.08
2022-08-31T07:11:48.980Z,80.12
2022-08-31T07:14:18.583Z,79.80
2022-08-31T07:16:46.099Z,78.98
2022-08-31T07:19:13.564Z,78.81
2022-08-31T07:21:45.732Z,78.64
2022-08-31T07:24:15.055Z,78.40
2022-08-31T07:26:50.111Z,78.42
2022-08-31T07:29:18.804Z,78.44
2022-08-31T07:31:48.399Z,78.30
2022-08-31T07:34:17.443Z,78.29
2022-08-31T07:37:02.814Z,78.58
2022-08-31T07:39:48.930Z,78.47
2022-08-31T07:42:20.604Z,78.98
2022-08-31T07:44:53.445Z,79.32
2022-08-31T07:47:21.315Z,79.09
2022-08-31T07:49:52.515Z,79.25
2022-08-31T07:52:21.920Z,79.20
2022-08-31T07:54:50.098Z,78.99
2022-08-31T07:57:18.858Z,79.00
2022-08-31T07:59:47.113Z,79.26
2022-08-31T08:02:17.714Z,78.24
2022-08-31T08:04:45.053Z,78.48
2022-08-31T08:07:12.385Z,78.12
2022-08-31T08:09:38.949Z,78.30
2022-08-31T08:12:08.783Z,78.71
2022-08-31T08:14:38.392Z,78.13
2022-08-31T08:17:07.396Z,78.43
2022-08-31T08:19:34.041Z,77.98
2022-08-31T08:22:02.874Z,77.90
2022-08-31T08:24:31.591Z,78.08
2022-08-31T08:26:58.880Z,77.67
2022-08-31T08:29:27.223Z,77.18
2022-08-31T08:31:54.514Z,77.18
2022-08-31T08:34:29.630Z,76.90
2022-08-31T08:37:00.202Z,76.87
2022-08-31T08:39:27.254Z,76.14
2022-08-31T08:41:57.760Z,75.70
2022-08-31T08:44:28.453Z,75.18
2022-08-31T08:46:58.802Z,75.44
2022-08-31T08:49:28.748Z,74.39
2022-08-31T08:52:03.232Z,74.15
2022-08-31T08:54:33.161Z,74.00
2022-08-31T08:57:03.465Z,73.47
2022-08-31T08:59:29.946Z,73.26
2022-08-31T09:02:02.037Z,72.27
2022-08-31T09:04:59.518Z,72.64
2022-08-31T09:07:42.910Z,71.82
2022-08-31T09:10:23.027Z,71.12
2022-08-31T09:13:01.607Z,70.75
2022-08-31T09:15:40.052Z,70.78
2022-08-31T09:18:18.759Z,70.82
2022-08-31T09:21:01.344Z,70.43
2022-08-31T09:23:29.947Z,70.38
2022-08-31T09:25:58.469Z,70.37
2022-08-31T09:28:48.414Z,69.74
2022-08-31T09:31:32.974Z,68.69
2022-08-31T09:33:59.683Z,67.96
2022-08-31T09:36:33.666Z,67.94
2022-08-31T09:39:22.736Z,66.94
2022-08-31T09:41:50.087Z,67.17
2022-08-31T09:44:22.995Z,66.14
2022-08-31T09:46:56.558Z,65.10
2022-08-31T09:49:27.508Z,64.48
2022-08-31T09:52:18.939Z,63.93
2022-08-31T09:55:13.993Z,62.92
2022-08-31T09:58:07.847Z,63.12
2022-08-31T10:00:44.148Z,61.91
2022-08-31T10:03:13.605Z,61.82
2022-08-31T10:05:43.528Z,61.58
2022-08-31T10:08:31.662Z,60.62
2022-08-31T10:11:06.420Z,59.81
2022-08-31T10:13:44.173Z,59.71
2022-08-31T10:16:34.874Z,59.26
2022-08-31T10:19:13.325Z,58.67
2022-08-31T10:21:48.957Z,59.47
2022-08-31T10:24:44.603Z,57.72
2022-08-31T10:27:14.816Z,58.07
2022-08-31T10:29:46.059Z,57.45
2022-08-31T10:32:34.464Z,56.90
2022-08-31T10:35:10.094Z,56.77
2022-08-31T10:37:50.427Z,56.67
2022-08-31T10:40:23.481Z,56.63
2022-08-31T10:43:01.518Z,56.20
2022-08-31T10:45:31.502Z,54.46
2022-08-31T10:47:59.847Z,54.81
2022-08-31T10:50:45.200Z,53.01
2022-08-31T10:53:22.460Z,52.79
2022-08-31T10:55:59.960Z,51.95
2022-08-31T10:58:49.354Z,50.73
2022-08-31T11:01:27.943Z,50.98
2022-08-31T11:04:12.715Z,49.85
2022-08-31T11:06:50.804Z,50.24
2022-08-31T11:09:24.622Z,50.21
2022-08-31T11:11:58.038Z,49.22
2022-08-31T11:14:36.646Z,49.36
2022-08-31T11:17:13.686Z,49.41
2022-08-31T11:20:00.629Z,48.78
2022-08-31T11:22:37.369Z,49.62
2022-08-31T11:25:24.901Z,48.55
2022-08-31T11:28:22.423Z,48.01
2022-08-31T11:30:50.890Z,47.04
2022-08-31T11:33:28.235Z,47.71
2022-08-31T11:36:10.132Z,47.10
2022-08-31T11:38:54.600Z,47.70
2022-08-31T11:41:46.538Z,47.13
2022-08-31T11:44:29.683Z,45.28
2022-08-31T11:47:09.560Z,45.02
2022-08-31T11:49:51.678Z,44.02
2022-08-31T11:52:22.049Z,44.37
2022-08-31T11:54:50.275Z,44.70
2022-08-31T11:57:25.378Z,44.26
2022-08-31T11:59:56.005Z,45.09
2022-08-31T12:02:23.101Z,45.21
2022-08-31T12:04:52.205Z,44.47
2022-08-31T12:07:41.157Z,42.68
2022-08-31T12:10:10.507Z,43.11
2022-08-31T12:12:42.415Z,41.94
2022-08-31T12:15:13.571Z,40.76
2022-08-31T12:18:14.018Z,39.69
2022-08-31T12:21:08.170Z,39.93
2022-08-31T12:23:38.754Z,40.20
2022-08-31T12:26:25.573Z,40.80
2022-08-31T12:29:21.374Z,40.42
2022-08-31T12:32:26.909Z,38.77
2022-08-31T12:34:56.311Z,37.47
2022-08-31T12:37:24.280Z,35.93
2022-08-31T12:40:17.449Z,34.15
2022-08-31T12:43:02.479Z,34.42
2022-08-31T12:45:54.675Z,35.72
2022-08-31T12:48:39.285Z,36.61
2022-08-31T12:51:08.965Z,36.36
2022-08-31T12:53:51.954Z,34.45
2022-08-31T12:56:39.948Z,34.82
2022-08-31T12:59:23.041Z,34.32
2022-08-31T13:01:51.357Z,33.71
2022-08-31T13:04:20.071Z,34.02
2022-08-31T13:06:48.321Z,33.67
2022-08-31T13:09:28.614Z,31.66
2022-08-31T13:11:58.801Z,31.43
2022-08-31T13:14:38.310Z,30.85
2022-08-31T13:17:11.752Z,30.90
2022-08-31T13:19:50.377Z,28.79
2022-08-31T13:22:25.121Z,27.71
2022-08-31T13:24:54.141Z,29.61
2022-08-31T13:27:24.644Z,29.78
2022-08-31T13:29:53.449Z,30.84
2022-08-31T13:32:33.628Z,30.84
2022-08-31T13:35:04.123Z,31.79
2022-08-31T13:37:39.454Z,30.60
2022-08-31T13:40:10.699Z,30.83
2022-08-31T13:42:43.502Z,30.26
2022-08-31T13:45:25.082Z,29.71
2022-08-31T13:48:03.696Z,29.47
2022-08-31T13:50:56.053Z,29.71
2022-08-31T13:53:41.251Z,30.10
2022-08-31T13:56:41.775Z,29.96
2022-08-31T13:59:23.170Z,29.59
2022-08-31T14:01:55.812Z,28.84
2022-08-31T14:04:49.547Z,28.52
2022-08-31T14:07:23.811Z,28.63
2022-08-31T14:09:50.649Z,28.73
2022-08-31T14:12:34.928Z,27.78
2022-08-31T14:15:10.304Z,27.84
2022-08-31T14:17:43.153Z,28.04
2022-08-31T14:20:36.896Z,27.77
2022-08-31T14:23:27.494Z,27.52
2022-08-31T14:26:01.523Z,27.72
2022-08-31T14:28:42.059Z,28.14
2022-08-31T14:31:29.727Z,26.96
2022-08-31T14:34:11.408Z,26.87
2022-08-31T14:36:50.271Z,27.26
2022-08-31T14:39:16.844Z,27.39
2022-08-31T14:41:45.059Z,27.37
2022-08-31T14:44:13.505Z,27.58
2022-08-31T14:46:42.791Z,27.96
2022-08-31T14:49:09.592Z,27.90
2022-08-31T14:51:39.876Z,28.30
2022-08-31T14:54:08.932Z,28.52
2022-08-31T14:56:39.806Z,29.13
2022-08-31T14:59:12.493Z,29.49
2022-08-31T15:01:40.223Z,29.94
2022-08-31T15:04:06.828Z,29.74
2022-08-31T15:06:33.968Z,29.94
2022-08-31T15:09:04.967Z,29.69
2022-08-31T15:11:37.004Z,29.53
2022-08-31T15:14:05.161Z,29.44
2022-08-31T15:16:32.131Z,29.44
2022-08-31T15:18:59.598Z,29.54
2022-08-31T15:21:26.535Z,29.60
2022-08-31T15:23:53.032Z,29.78
2022-08-31T15:26:21.567Z,30.22
2022-08-31T15:28:52.413Z,30.51
2022-08-31T15:31:23.895Z,30.73
2022-08-31T15:33:53.833Z,31.23
2022-08-31T15:36:21.989Z,31.41
2022-08-31T15:38:49.897Z,32.04
2022-08-31T15:41:17.757Z,32.51
2022-08-31T15:43:44.576Z,32.61
2022-08-31T15:46:14.154Z,33.04
2022-08-31T15:48:45.764Z,33.11
2022-08-31T15:51:15.276Z,32.87
2022-08-31T15:53:42.658Z,33.09
2022-08-31T15:56:09.387Z,33.55
2022-08-31T15:58:38.982Z,33.96
2022-08-31T16:01:12.547Z,34.41
2022-08-31T16:03:41.875Z,34.88
2022-08-31T16:06:11.025Z,35.20
2022-08-31T16:08:41.268Z,35.53
2022-08-31T16:11:11.792Z,35.79
2022-08-31T16:13:47.779Z,35.68
2022-08-31T16:16:18.672Z,36.05
2022-08-31T16:18:47.527Z,36.18
2022-08-31T16:21:15.206Z,36.15
2022-08-31T16:23:41.856Z,36.18
2022-08-31T16:26:11.343Z,36.68
2022-08-31T16:28:39.131Z,37.00
2022-08-31T16:31:10.347Z,37.33
2022-08-31T16:33:36.896Z,36.83
2022-08-31T16:36:03.479Z,37.18
2022-08-31T16:38:30.873Z,37.38
2022-08-31T16:41:04.832Z,37.72
2022-08-31T16:43:31.388Z,38.06
2022-08-31T16:45:59.762Z,37.80
2022-08-31T16:48:45.102Z,37.93
2022-08-31T16:51:15.293Z,38.14
2022-08-31T16:53:47.183Z,38.31
2022-08-31T16:56:15.184Z,38.25
2022-08-31T16:58:52.895Z,38.70
2022-08-31T17:01:24.382Z,38.44
2022-08-31T17:03:57.282Z,38.41
2022-08-31T17:06:31.661Z,38.75
2022-08-31T17:09:01.752Z,38.83
2022-08-31T17:11:32.028Z,39.15
2022-08-31T17:14:00.908Z,39.14
2022-08-31T17:16:34.757Z,39.80
2022-08-31T17:19:04.334Z,39.48
2022-08-31T17:21:31.929Z,39.53
2022-08-31T17:24:02.088Z,39.84
2022-08-31T17:26:33.857Z,39.75
2022-08-31T17:29:06.239Z,40.28
2022-08-31T17:31:41.971Z,40.26
2022-08-31T17:34:15.365Z,40.62
2022-08-31T17:36:45.897Z,40.69
2022-08-31T17:39:14.429Z,40.79
2022-08-31T17:41:44.209Z,40.75
2022-08-31T17:44:16.325Z,41.16
2022-08-31T17:46:50.031Z,41.37
2022-08-31T17:49:18.812Z,41.42
2022-08-31T17:51:48.333Z,41.74
2022-08-31T17:54:18.996Z,41.57
2022-08-31T17:56:56.744Z,42.06
2022-08-31T17:59:28.286Z,42.07
2022-08-31T18:01:57.328Z,41.90
2022-08-31T18:04:25.553Z,42.03
2022-08-31T18:06:55.019Z,42.24
2022-08-31T18:09:25.316Z,42.04
2022-08-31T18:11:52.945Z,42.24
2022-08-31T18:14:23.400Z,42.32
2022-08-31T18:16:51.953Z,42.43
2022-08-31T18:19:27.310Z,42.36
2022-08-31T18:21:56.096Z,42.46
2022-08-31T18:24:23.199Z,42.64
2022-08-31T18:26:51.781Z,42.65
2022-08-31T18:29:23.847Z,42.79
2022-08-31T18:31:52.859Z,42.78
2022-08-31T18:34:24.649Z,42.77
2022-08-31T18:36:55.302Z,42.75
2022-08-31T18:39:50.182Z,42.68
2022-08-31T18:42:32.253Z,42.62
2022-08-31T18:45:18.036Z,42.66
2022-08-31T18:48:23.112Z,42.67
2022-08-31T18:50:44.385Z,42.40
2022-08-31T18:53:15.398Z,42.22
2022-08-31T18:55:43.720Z,42.37
2022-08-31T18:58:10.409Z,42.49
2022-08-31T19:00:37.146Z,42.29
2022-08-31T19:03:03.886Z,42.64
2022-08-31T19:05:31.597Z,42.57
2022-08-31T19:08:00.162Z,42.53
2022-08-31T19:10:27.153Z,42.66
2022-08-31T19:12:56.846Z,42.75
2022-08-31T19:15:25.646Z,42.77
2022-08-31T19:18:02.680Z,42.91
2022-08-31T19:20:30.064Z,42.84
2022-08-31T19:22:56.771Z,43.00
2022-08-31T19:25:24.407Z,42.99
2022-08-31T19:27:51.873Z,42.90
2022-08-31T19:30:23.286Z,43.18
2022-08-31T19:32:53.524Z,43.14
2022-08-31T19:35:20.214Z,43.15
2022-08-31T19:37:47.300Z,43.17
2022-08-31T19:40:17.794Z,43.00
2022-08-31T19:43:41.837Z,43.31
2022-08-31T19:45:42.845Z,43.20
2022-08-31T19:48:10.087Z,43.25
2022-08-31T19:50:41.518Z,43.13
2022-08-31T19:53:12.461Z,43.22
2022-08-31T19:55:50.093Z,43.36
2022-08-31T19:58:18.744Z,43.32
2022-08-31T20:00:45.877Z,43.27
2022-08-31T20:03:15.639Z,43.29
2022-08-31T20:05:43.488Z,43.36
2022-08-31T20:08:12.191Z,43.21
2022-08-31T20:10:45.989Z,43.45
2022-08-31T20:13:13.127Z,43.15
2022-08-31T20:15:44.644Z,43.22
2022-08-31T20:18:12.510Z,43.11
2022-08-31T20:20:48.348Z,43.11
2022-08-31T20:23:17.262Z,43.06
2022-08-31T20:25:51.615Z,42.76
2022-08-31T20:28:23.109Z,42.79
2022-08-31T20:30:50.762Z,42.59
2022-08-31T20:33:17.400Z,42.41
2022-08-31T20:35:47.196Z,42.24
2022-08-31T20:38:18.211Z,42.42
2022-08-31T20:40:47.275Z,42.22
2022-08-31T20:43:14.747Z,42.23
2022-08-31T20:45:41.922Z,41.99
2022-08-31T20:48:27.979Z,42.10
2022-08-31T20:50:55.940Z,41.93
2022-08-31T20:53:25.048Z,42.08
2022-08-31T20:56:10.984Z,42.00
2022-08-31T20:58:45.730Z,42.07
2022-08-31T21:01:14.065Z,41.93
2022-08-31T21:03:40.965Z,42.05
2022-08-31T21:06:11.486Z,42.14
2022-08-31T21:08:40.854Z,42.23
2022-08-31T21:11:15.438Z,42.30
2022-08-31T21:13:42.871Z,42.41
2022-08-31T21:16:10.262Z,42.43
2022-08-31T21:18:37.038Z,42.55
2022-08-31T21:21:06.562Z,42.80
2022-08-31T21:23:33.107Z,42.61
2022-08-31T21:25:59.719Z,42.58
2022-08-31T21:28:29.131Z,42.66
2022-08-31T21:31:15.727Z,42.97
2022-08-31T21:33:46.246Z,42.96
2022-08-31T21:36:15.195Z,42.95
2022-08-31T21:38:42.901Z,42.84
2022-08-31T21:41:10.731Z,43.07
2022-08-31T21:43:37.468Z,43.17
2022-08-31T21:46:07.703Z,43.21
2022-08-31T21:48:35.960Z,43.38
2022-08-31T21:51:15.735Z,43.56
2022-08-31T21:53:45.888Z,43.66
2022-08-31T21:56:12.724Z,43.56
2022-08-31T21:58:39.967Z,43.72
2022-08-31T22:01:09.625Z,44.02
2022-08-31T22:03:36.670Z,43.90
2022-08-31T22:06:07.775Z,44.07
2022-08-31T22:08:36.268Z,44.17
2022-08-31T22:11:08.149Z,44.46
2022-08-31T22:13:37.108Z,44.34
2022-08-31T22:16:13.227Z,44.18
2022-08-31T22:19:00.910Z,44.43
2022-08-31T22:21:30.389Z,44.80
2022-08-31T22:23:59.948Z,44.51
2022-08-31T22:26:28.637Z,44.57
2022-08-31T22:28:55.788Z,44.66
2022-08-31T22:31:25.133Z,44.70
2022-08-31T22:33:51.949Z,44.75
2022-08-31T22:36:30.915Z,44.60
2022-08-31T22:39:04.153Z,44.68
2022-08-31T22:41:32.649Z,44.76
2022-08-31T22:43:59.770Z,44.81
2022-08-31T22:46:26.787Z,44.85
2022-08-31T22:48:53.287Z,45.14
2022-08-31T22:51:19.776Z,45.22
2022-08-31T22:53:47.115Z,45.13
2022-08-31T22:56:26.078Z,45.21
2022-08-31T22:58:57.931Z,45.32
2022-08-31T23:01:33.721Z,45.46
2022-08-31T23:04:06.330Z,45.25
2022-08-31T23:06:35.633Z,45.49
2022-08-31T23:09:05.152Z,45.36
2022-08-31T23:11:31.620Z,45.66
2022-08-31T23:13:58.836Z,45.41
2022-08-31T23:16:26.834Z,45.37
2022-08-31T23:19:02.657Z,45.74
2022-08-31T23:21:33.904Z,45.63
2022-08-31T23:24:01.647Z,45.52
2022-08-31T23:26:30.342Z,45.42
2022-08-31T23:28:59.012Z,45.59
2022-08-31T23:31:27.541Z,45.87
2022-08-31T23:33:54.731Z,45.66
2022-08-31T23:36:26.186Z,45.91
2022-08-31T23:38:57.773Z,46.10
2022-08-31T23:41:29.497Z,46.04
2022-08-31T23:43:57.440Z,45.96
2022-08-31T23:46:25.205Z,46.28
2022-08-31T23:48:53.391Z,46.37
2022-08-31T23:51:22.366Z,46.40
2022-08-31T23:53:53.967Z,46.33
2022-08-31T23:56:30.252Z,46.52
2022-08-31T23:58:57.648Z,46.53
